Tuesday, December 18, 2018, 12:54 PM EST
Back to Local

KRUT, Rutland, Rutland-southern Vermont Regional Airport

Location: North Clarendon, VT, United States Lat: 43.533
Local Time: 12:54 PM EST (17:54 GMT) Lon: -72.95
Time Zone: US/Eastern Elev: 787 ft

Show me the last for .
Show Decoded

2018-12-18 11:56 METAR KRUT 181656Z AUTO 35011G18KT 10SM OVC031 M06/M12 A2996 RMK AO2 SNB1558E09
                 SLP170 P0000 T10611122 FZRANO $ =
2018-12-18 10:56 METAR KRUT 181556Z AUTO 33015G21KT 10SM OVC031 M07/M13 A2997 RMK AO2 SNE49
                 SLP173 P0000 T10671128 FZRANO $ =
2018-12-18 09:56 METAR KRUT 181456Z AUTO 32013G22KT 9SM -SN OVC031 M07/M13 A2999 RMK AO2 SNB48
                 SLP175 P0000 60000 T10721133 51028 FZRANO $ =
2018-12-18 08:56 METAR KRUT 181356Z AUTO 33013G21KT 10SM OVC035 M08/M13 A2997 RMK AO2 PK WND
                 33026/1333 SLP168 T10781133 FZRANO $ =
2018-12-18 07:56 METAR KRUT 181256Z AUTO 32010G16KT 10SM OVC035 M08/M14 A2994 RMK AO2 SLP158
                 T10781139 FZRANO $ =
2018-12-18 06:56 METAR KRUT 181156Z AUTO 33011G21KT 10SM OVC037 M08/M14 A2990 RMK AO2 SLP146
                 60000 70007 T10781139 11072 21078 53035 FZRANO $ =
2018-12-18 05:56 METAR KRUT 181056Z AUTO 31013G21KT 10SM OVC037 M07/M14 A2986 RMK AO2 SLP135
                 T10721139 FZRANO $ =
2018-12-18 04:56 METAR KRUT 180956Z AUTO 32015G20KT 10SM OVC037 M07/M13 A2982 RMK AO2 SNE41
                 SLP119 P0000 T10721133 FZRANO $ =
2018-12-18 03:56 METAR KRUT 180856Z AUTO 31013G21KT 9SM -SN OVC037 M07/M13 A2980 RMK AO2 SLP114
                 P0000 60000 T10721128 51025 FZRANO $ =
2018-12-18 02:56 METAR KRUT 180756Z AUTO 32014G21KT 10SM -SN OVC039 M07/M13 A2977 RMK AO2
                 SNE07B56 SLP106 P0000 T10721133 FZRANO $ =
2018-12-18 01:56 METAR KRUT 180656Z AUTO 33017G27KT 7SM -SN OVC043 M07/M14 A2975 RMK AO2 PK WND
                 31028/0640 SLP097 P0000 T10721139 FZRANO $ =
2018-12-18 00:56 METAR KRUT 180556Z AUTO 33017G30KT 4SM -SN SCT028 BKN035 BKN048 M07/M12 A2972
                 RMK AO2 PK WND 33030/0550 SLP088 P0000 60000 T10721117 10011 21072 51022 FZRANO
                 $ =
2018-12-18 00:46 METAR KRUT 180546Z AUTO 33017G25KT 5SM -SN BKN028 BKN035 M07/M11 A2972 RMK AO2
                 PK WND 34030/0516 P0000 FZRANO $ =
2018-12-17 23:56 METAR KRUT 180456Z AUTO 33015G21KT 2 1/2SM -SN BR OVC017 M06/M07 A2968 RMK AO2
                 VIS 2V3 SLP072 P0000 T10561072 400281056 FZRANO $ =
2018-12-17 23:19 METAR KRUT 180419Z AUTO 33010G19KT 3SM -SN BR BKN016 OVC023 M05/M07 A2967 RMK
                 AO2 P0000 FZRANO $ =
2018-12-17 22:56 METAR KRUT 180356Z AUTO 33015G22KT 2SM -SN BR BKN011 OVC016 M04/M06 A2966 RMK
                 AO2 SLP064 P0000 T10441056 FZRANO $ =
2018-12-17 22:44 METAR KRUT 180344Z AUTO 33013G17KT 1 1/4SM -SN BR BKN011 BKN017 OVC022 M04/M06
                 A2965 RMK AO2 P0000 FZRANO $ =
2018-12-17 22:29 METAR KRUT 180329Z AUTO 34015G23KT 1 3/4SM -SN BR BKN015 BKN021 OVC027 M03/M06
                 A2965 RMK AO2 VIS 1 1/4V4 P0000 FZRANO $ =
2018-12-17 22:15 METAR KRUT 180315Z AUTO 35018G24KT 3SM -SN BR OVC017 M02/M04 A2963 RMK AO2 P0000
                 FZRANO $ =
2018-12-17 22:04 METAR KRUT 180304Z AUTO 32011G18KT 2 1/2SM -SN BR FEW008 BKN013 OVC018 M02/M03
                 A2963 RMK AO2 VIS 1 3/4V3 P0000 FZRANO $ =
2018-12-17 21:56 METAR KRUT 180256Z AUTO 33012G16KT 3SM -SN BR FEW008 OVC017 M01/M03 A2963 RMK
                 AO2 SLP052 P0000 60000 T10111028 53006 FZRANO $ =
2018-12-17 21:23 METAR KRUT 180223Z AUTO 31008KT 2 1/2SM -SN BR BKN015 OVC021 M01/M02 A2962 RMK
                 AO2 VIS 2V3 P0000 FZRANO $ =
2018-12-17 20:56 METAR KRUT 180156Z AUTO 32007KT 7SM -SN BKN023 OVC028 01/M03 A2962 RMK AO2
                 RAB0057E17B41E44UPB37E41SNE0057B44 SLP052 P0000 T00061028 FZRANO $ =
2018-12-17 19:56 METAR KRUT 180056Z AUTO 33006KT 9SM -SN OVC022 01/M02 A2961 RMK AO2 RAE09SNB09
                 SLP047 P0000 T00061022 FZRANO $ =
2018-12-17 19:46 METAR KRUT 180046Z AUTO 33007KT 9SM -SN BKN024 OVC030 01/M03 A2961 RMK AO2
                 RAE09SNB09 P0000 FZRANO $ =
2018-12-17 18:56 METAR KRUT 172356Z AUTO 29008KT 10SM -RA SCT027 OVC036 01/M03 A2960 RMK AO2
                 RAB38 SLP047 P0000 60003 T00111033 10022 20006 51008 FZRANO $ =
2018-12-17 17:56 METAR KRUT 172256Z AUTO 32004KT 10SM OVC027 01/M02 A2960 RMK AO2
                 UPB28E33RAB33E45SNE28 SLP045 P0000 T00111022 FZRANO $ =
2018-12-17 16:56 METAR KRUT 172156Z AUTO 32004KT 10SM -SN OVC027 01/M01 A2959 RMK AO2
                 RAB39E53SNB53 SLP041 P0000 T00061011 FZRANO $ =
2018-12-17 15:56 METAR KRUT 172056Z AUTO 32006KT 10SM BKN037 BKN050 OVC070 01/M02 A2958 RMK AO2
                 UPB14E16RAB38E56SNE14 SLP039 P0000 60003 T00111017 51014 FZRANO $ =
2018-12-17 14:56 METAR KRUT 171956Z AUTO 30007KT 9SM -SN SCT025 BKN031 OVC060 01/M01 A2956 RMK
                 AO2 RAB09E22UPB22E38SNB38 SLP033 P0001 T00111011 FZRANO $ =
2018-12-17 14:47 METAR KRUT 171947Z AUTO 31007KT 8SM -SN SCT025 BKN031 OVC060 01/M01 A2956 RMK
                 AO2 RAB09E22UPB22E38SNB38 P0001 FZRANO $ =
2018-12-17 14:35 METAR KRUT 171935Z AUTO 31010G18KT 2 1/2SM UP FEW021 BKN027 OVC034 02/M02 A2956
                 RMK AO2 VIS 2V4 RAB09E22UPB22 P0001 FZRANO $ =
2018-12-17 14:08 METAR KRUT 171908Z AUTO 26011G18KT 10SM SCT029 BKN034 OVC060 02/M02 A2954 RMK
                 AO2 FZRANO $ =
2018-12-17 13:56 METAR KRUT 171856Z AUTO 26011G19KT 10SM FEW021 BKN028 OVC060 02/M02 A2954 RMK
                 AO2 RAE42 SLP024 P0002 T00221017 FZRANO $ =
2018-12-17 13:44 METAR KRUT 171844Z AUTO 25011G14KT 10SM FEW021 BKN036 OVC065 03/M01 A2954 RMK
                 AO2 RAE42 P0002 $ =
2018-12-17 12:56 METAR KRUT 171756Z AUTO 26004KT 10SM -RA OVC027 02/00 A2956 RMK AO2 RAB56 SLP031
                 P0001 60004 T00170000 10017 21006 57029 FZRANO $ =

Support USWX by starting your Amazon purchase here.